Latest Weather Observations for Nuriootpa

IDS60901

Issued at 12:21 am CDT Tuesday 26 March 2019 (issued every 10 minutes, with the page automatically refreshed every 10 minutes)

About weather observations | Map of Adelaide area stations | Latest observations for Adelaide area | Other Formats
Station Details ID: 023373 Name: NURIOOTPA PIRSA Lat: -34.48 Lon: 139.01 Height: 275.0 m
Data from the previous 72 hours. | See also: Recent months at Nuriootpa
Date/Time
CDT
Temp
°C
App
Temp
°C
Dew
Point
°C
Rel
Hum
%
Delta-T
°C
Wind Press
QNH
hPa
Press
MSL
hPa
Rain since
9am
mm
Dir  Spd
km/h
Gust
km/h
Spd
kts
Gust
kts
26/12:00am 10.1 8.7 5.6 73 2.1 E 2 6 1 3 1020.3 1019.5 0.0
 
Date/Time
CDT
Temp
°C
App
Temp
°C
Dew
Point
°C
Rel
Hum
%
Delta-T
°C
Wind Press
QNH
hPa
Press
MSL
hPa
Rain since
9am
mm
Dir  Spd
km/h
Gust
km/h
Spd
kts
Gust
kts
25/11:30pm 9.7 8.6 4.9 72 2.2 CALM 0 0 0 0 1020.1 1019.3 0.0
25/11:00pm 8.9 6.6 4.7 75 1.9 E 6 7 3 4 1020.1 1019.3 0.0
25/10:30pm 7.7 5.6 3.8 76 1.7 ENE 4 7 2 4 1020.1 1019.3 0.0
25/10:00pm 8.6 7.2 3.8 72 2.1 CALM 0 0 0 0 1019.9 1019.1 0.0
25/09:30pm 10.9 8.9 4.5 64 2.9 WSW 4 7 2 4 1019.6 1018.8 0.0
25/09:00pm 12.4 9.0 4.1 57 3.8 WSW 11 17 6 9 1019.2 1018.4 0.0
25/08:30pm 12.9 8.8 4.2 55 4.0 WSW 15 20 8 11 1018.6 1017.8 0.0
25/08:00pm 13.6 9.1 4.3 53 4.3 WSW 17 24 9 13 1018.1 1017.3 0.0
25/07:30pm 14.2 9.2 4.6 52 4.5 WSW 20 32 11 17 1017.6 1016.8 0.0
25/07:00pm 14.9 8.8 4.8 51 4.8 WSW 26 37 14 20 1017.1 1016.3 0.0
25/06:30pm 15.3 9.5 4.5 48 5.1 WSW 24 39 13 21 1016.6 1015.8 0.0
25/06:00pm 16.2 9.8 5.2 48 5.3 WSW 28 41 15 22 1016.3 1015.5 0.0
25/05:53pm 16.5 10.0 4.8 46 5.6 WSW 28 46 15 25 1016.2 1015.4 0.0
25/05:30pm 16.6 11.7 5.3 47 5.5 WSW 20 35 11 19 1016.0 1015.2 0.0
25/05:00pm 15.8 9.5 5.7 51 4.9 WSW 28 44 15 24 1015.8 1015.0 0.0
25/04:30pm 16.1 9.8 5.9 50 5.0 WSW 28 39 15 21 1015.5 1014.7 0.0
25/04:00pm 16.5 10.5 5.4 48 5.4 W 26 39 14 21 1015.3 1014.5 0.0
25/03:30pm 16.8 10.3 4.7 44 5.8 WSW 28 43 15 23 1015.2 1014.4 0.0
25/03:00pm 17.0 10.4 6.1 48 5.4 WSW 30 44 16 24 1015.2 1014.4 0.0
25/02:30pm 16.6 10.1 4.7 45 5.7 WSW 28 44 15 24 1015.1 1014.3 0.0
25/02:00pm 17.1 10.7 5.4 46 5.7 WSW 28 41 15 22 1015.3 1014.5 0.0
25/01:30pm 16.2 9.2 6.0 51 5.0 WSW 32 46 17 25 1015.4 1014.6 0.0
25/01:15pm 16.7 9.4 5.4 47 5.5 WSW 33 54 18 29 1015.2 1014.4 0.0
25/01:00pm 17.1 9.4 3.5 40 6.4 SW 33 50 18 27 1015.3 1014.5 0.0
25/12:57pm 16.5 9.0 3.4 41 6.1 WSW 32 50 17 27 1015.2 1014.4 0.0
25/12:30pm 17.0 9.8 4.8 44 5.9 WSW 32 46 17 25 1015.2 1014.4 0.0
25/12:07pm 17.1 10.4 5.7 47 5.6 WSW 30 52 16 28 1015.2 1014.4 0.0
25/12:00pm 17.2 10.5 5.8 47 5.6 WSW 30 43 16 23 1015.1 1014.3 0.0
25/11:31am 16.2 8.9 5.5 49 5.2 WSW 33 52 18 28 1015.2 1014.4 0.0
25/11:30am 15.4 7.6 4.9 49 5.0 WSW 35 52 19 28 1015.2 1014.4 0.0
25/11:01am 14.8 8.3 6.7 58 4.0 W 30 48 16 26 1015.1 1014.3 0.0
25/11:00am 14.6 7.8 6.9 60 3.8 W 32 48 17 26 1015.0 1014.2 0.0
25/10:57am 14.6 7.9 7.4 62 3.6 W 32 48 17 26 1015.0 1014.2 0.0
25/10:30am 15.7 8.3 4.8 48 5.2 WSW 33 46 18 25 1014.6 1013.8 0.0
25/10:00am 15.3 7.9 5.1 50 4.9 WSW 33 56 18 30 1014.0 1013.2 0.0
25/09:30am 15.1 7.8 4.3 48 5.1 W 32 50 17 27 1013.5 1012.7 0.0
25/09:00am 14.1 8.0 6.5 60 3.7 W 28 48 15 26 1013.1 1012.3 0.6
25/08:31am 13.7 6.8 6.3 61 3.6 W 32 54 17 29 1012.6 1011.8 0.6
25/08:30am 13.8 7.0 6.7 62 3.5 W 32 44 17 24 1012.6 1011.8 0.6
25/08:00am 13.3 7.2 6.5 63 3.3 W 28 39 15 21 1012.0 1011.2 0.6
25/07:30am 12.7 6.9 6.3 65 3.1 W 26 43 14 23 1011.5 1010.7 0.6
25/07:00am 12.7 7.4 7.0 68 2.8 W 24 39 13 21 1011.2 1010.3 0.6
25/06:30am 13.0 7.8 7.3 68 2.8 W 24 37 13 20 1011.0 1010.1 0.6
25/06:14am 12.9 6.7 7.9 71 2.5 W 30 48 16 26 1010.7 1009.8 0.6
25/06:00am 13.0 8.3 9.3 78 1.9 W 24 39 13 21 1010.6 1009.7 0.6
25/05:30am 13.1 7.5 8.8 75 2.2 W 28 44 15 24 1009.8 1009.0 0.6
25/05:00am 13.0 8.0 9.5 79 1.8 W 26 37 14 20 1009.2 1008.4 0.6
25/04:30am 13.3 7.9 9.4 77 2.0 W 28 48 15 26 1008.8 1008.0 0.6
25/04:26am 13.4 7.6 9.6 78 2.0 W 30 48 16 26 1008.8 1008.0 0.6
25/04:00am 13.4 8.3 10.6 83 1.5 W 28 44 15 24 1008.7 1007.9 0.6
25/03:30am 13.7 7.6 9.9 78 2.0 W 32 46 17 25 1008.5 1007.7 0.6
25/03:24am 13.8 8.5 10.0 78 2.0 WSW 28 46 15 25 1008.5 1007.7 0.6
25/03:00am 14.3 7.8 8.9 70 2.8 W 33 48 18 26 1008.2 1007.3 0.6
25/02:32am 14.4 8.6 9.6 73 2.5 W 30 52 16 28 1008.0 1007.1 0.6
25/02:30am 14.4 9.1 9.8 74 2.4 W 28 43 15 23 1008.0 1007.1 0.6
25/02:10am 14.5 9.5 10.8 78 2.0 W 28 46 15 25 1008.2 1007.3 0.6
25/02:00am 14.3 9.0 11.2 81 1.7 W 30 43 16 23 1008.2 1007.3 0.6
25/01:30am 13.6 8.4 12.7 94 0.5 W 32 48 17 26 1008.3 1007.5 0.6
25/01:00am 14.2 7.5 13.3 94 0.5 WSW 41 69 22 37 1008.2 1007.3 0.6
25/12:30am 15.9 10.8 13.8 87 1.2 W 33 52 18 28 1007.8 1006.9 0.4
25/12:15am 16.1 10.3 13.8 86 1.3 W 37 56 20 30 1007.8 1006.9 0.4
25/12:00am 17.1 10.5 12.7 75 2.5 W 39 52 21 28 1007.9 1007.0 0.4
 
Date/Time
CDT
Temp
°C
App
Temp
°C
Dew
Point
°C
Rel
Hum
%
Delta-T
°C
Wind Press
QNH
hPa
Press
MSL
hPa
Rain since
9am
mm
Dir  Spd
km/h
Gust
km/h
Spd
kts
Gust
kts
24/11:44pm 17.2 11.6 12.2 72 2.8 W 33 52 18 28 1007.9 1007.0 0.4
24/11:30pm 17.5 11.5 12.1 70 3.0 W 35 52 19 28 1007.9 1007.0 0.4
24/11:01pm 17.8 11.6 12.5 71 3.0 W 37 56 20 30 1008.0 1007.1 0.4
24/11:00pm 17.9 11.2 12.4 70 3.1 W 39 56 21 30 1007.9 1007.0 0.4
24/10:40pm 18.0 11.8 12.5 70 3.1 W 37 56 20 30 1007.8 1006.9 0.4
24/10:30pm 18.1 12.6 12.6 70 3.1 W 33 46 18 25 1007.9 1007.0 0.4
24/10:03pm 18.6 12.4 12.6 68 3.4 W 37 56 20 30 1008.0 1007.1 0.4
24/10:00pm 18.6 12.1 12.8 69 3.3 W 39 56 21 30 1008.0 1007.1 0.4
24/09:38pm 19.0 13.3 14.2 73 2.8 W 37 56 20 30 1008.0 1007.1 0.4
24/09:30pm 19.2 12.9 13.5 69 3.3 W 39 56 21 30 1007.8 1006.9 0.4
24/09:00pm 19.5 14.4 13.6 68 3.4 W 33 54 18 29 1007.8 1006.9 0.4
24/08:44pm 19.8 14.4 12.2 61 4.3 W 32 50 17 27 1007.7 1006.8 0.4
24/08:30pm 20.0 14.4 12.1 60 4.5 W 33 44 18 24 1007.5 1006.6 0.4
24/08:03pm 20.4 15.4 10.9 54 5.3 W 28 48 15 26 1007.3 1006.4 0.4
24/08:00pm 20.3 15.7 10.9 54 5.2 W 26 35 14 19 1007.4 1006.5 0.4
24/07:30pm 20.0 15.8 11.2 57 4.9 WNW 24 33 13 18 1007.3 1006.4 0.4
24/07:00pm 19.6 16.3 12.8 65 3.9 W 22 32 12 17 1007.5 1006.6 0.4
24/06:30pm 19.8 16.5 14.0 69 3.4 W 24 33 13 18 1007.4 1006.5 0.4
24/06:00pm 19.6 16.9 14.7 73 2.9 W 22 32 12 17 1007.4 1006.5 0.4
24/05:30pm 19.5 17.3 16.9 85 1.6 WSW 24 35 13 19 1007.3 1006.4 0.4
24/05:00pm 20.6 18.7 16.7 78 2.4 W 22 33 12 18 1006.7 1005.8 0.4
24/04:30pm 22.6 19.3 16.1 66 4.0 WNW 28 50 15 27 1006.4 1005.6 0.2
24/04:00pm 23.0 18.6 15.2 61 4.7 WNW 32 44 17 24 1006.7 1005.8 0.0
24/03:30pm 24.2 18.1 14.0 53 6.1 NW 39 61 21 33 1006.7 1005.8 0.0
24/03:00pm 24.3 17.5 14.3 53 6.0 WNW 43 61 23 33 1007.4 1006.5 0.0
24/02:30pm 24.0 18.5 13.7 52 6.1 NW 35 56 19 30 1007.7 1006.8 0.0
24/02:02pm 24.4 20.3 13.8 51 6.3 NW 28 52 15 28 1008.1 1007.2 0.0
24/02:00pm 24.7 21.1 14.2 52 6.3 NW 26 44 14 24 1008.2 1007.3 0.0
24/01:30pm 23.5 19.8 13.9 55 5.7 NW 26 41 14 22 1008.8 1008.0 0.0
24/01:00pm 23.5 20.4 14.5 57 5.4 NW 24 33 13 18 1009.3 1008.5 0.0
24/12:30pm 23.4 21.4 15.5 61 4.8 NW 20 30 11 16 1009.5 1008.7 0.0
24/12:00pm 23.1 22.0 15.2 61 4.8 NW 15 24 8 13 1009.8 1009.0 0.0
24/11:30am 21.9 21.3 15.6 67 3.8 N 13 20 7 11 1010.2 1009.4 0.0
24/11:00am 20.4 20.6 16.8 80 2.2 NE 11 15 6 8 1010.2 1009.4 0.0
24/10:30am 18.6 19.9 17.5 93 0.7 NE 7 11 4 6 1010.5 1009.6 0.0
24/10:00am 17.3 18.4 17.1 99 0.1 NE 7 9 4 5 1010.5 1009.6 0.0
24/09:30am 16.6 17.1 16.6 100 0.0 NNE 9 11 5 6 1010.5 1009.6 0.0
24/09:00am 16.0 16.3 16.0 100 0.0 NE 9 11 5 6 1010.9 1010.0 0.4
24/08:30am 15.3 15.7 15.3 100 0.0 NNE 7 9 4 5 1010.9 1010.0 0.4
24/08:00am 14.3 15.7 14.3 100 0.0 CALM 0 0 0 0 1011.0 1010.1 0.4
24/07:30am 14.3 15.7 14.3 100 0.0 CALM 0 0 0 0 1010.8 1009.9 0.4
24/07:00am 14.5 15.9 14.5 100 0.0 CALM 0 0 0 0 1010.8 1009.9 0.4
24/06:30am 14.2 15.5 14.0 99 0.1 CALM 0 0 0 0 1011.0 1010.1 0.4
24/06:00am 14.0 15.1 13.6 97 0.2 CALM 0 0 0 0 1011.2 1010.3 0.4
24/05:30am 14.6 16.0 14.4 99 0.1 CALM 0 0 0 0 1011.2 1010.3 0.4
24/05:00am 14.4 15.7 14.0 97 0.2 CALM 0 0 0 0 1011.2 1010.3 0.4
24/04:30am 14.6 16.0 14.3 98 0.2 CALM 0 0 0 0 1011.2 1010.3 0.4
24/04:00am 14.9 16.3 14.4 97 0.3 CALM 0 0 0 0 1011.4 1010.5 0.4
24/03:30am 14.9 16.3 14.4 97 0.3 CALM 0 0 0 0 1011.8 1011.0 0.4
24/03:00am 16.0 17.8 15.5 97 0.3 CALM 0 0 0 0 1012.2 1011.4 0.4
24/02:30am 16.2 18.1 15.7 97 0.3 CALM 0 0 0 0 1012.5 1011.7 0.4
24/02:00am 16.3 17.4 15.6 96 0.4 SSW 4 6 2 3 1012.6 1011.8 0.4
24/01:30am 16.8 17.7 16.1 96 0.4 NNE 6 7 3 4 1012.8 1012.0 0.4
24/01:00am 17.1 18.1 16.3 95 0.5 NE 6 7 3 4 1012.7 1011.9 0.4
24/12:30am 17.6 18.6 16.4 93 0.7 NE 6 9 3 5 1013.1 1012.3 0.4
24/12:00am 17.8 18.7 16.5 92 0.8 N 7 9 4 5 1013.4 1012.6 0.4
 
Date/Time
CDT
Temp
°C
App
Temp
°C
Dew
Point
°C
Rel
Hum
%
Delta-T
°C
Wind Press
QNH
hPa
Press
MSL
hPa
Rain since
9am
mm
Dir  Spd
km/h
Gust
km/h
Spd
kts
Gust
kts
23/11:30pm 17.8 19.9 16.3 91 0.9 CALM 0 0 0 0 1013.8 1013.0 0.4
23/11:00pm 18.3 19.8 16.7 90 1.0 N 4 7 2 4 1013.9 1013.1 0.4
23/10:30pm 18.5 19.9 16.5 88 1.2 N 4 7 2 4 1014.0 1013.2 0.4
23/10:00pm 18.6 19.6 16.3 86 1.4 W 6 9 3 5 1013.8 1013.0 0.4
23/09:30pm 18.7 19.2 16.6 87 1.3 WSW 9 13 5 7 1013.9 1013.1 0.4
23/09:00pm 18.8 18.8 16.3 85 1.5 W 11 15 6 8 1013.7 1012.9 0.4
23/08:30pm 19.0 18.5 15.8 82 1.9 W 13 20 7 11 1013.8 1013.0 0.4
23/08:00pm 19.1 19.5 16.3 84 1.7 NW 9 11 5 6 1013.7 1012.9 0.4
23/07:30pm 19.3 19.0 16.5 84 1.7 WNW 13 17 7 9 1013.7 1012.9 0.4
23/07:00pm 19.9 19.0 15.9 78 2.4 W 15 19 8 10 1013.3 1012.5 0.2
23/06:30pm 21.3 19.6 14.8 66 3.9 WSW 17 26 9 14 1012.4 1011.6 0.0
23/06:00pm 22.9 20.6 13.1 54 5.7 W 17 20 9 11 1012.0 1011.2 0.0
23/05:30pm 23.4 21.2 13.4 53 5.9 WSW 17 24 9 13 1011.8 1011.0 0.0
23/05:00pm 23.4 20.5 12.9 51 6.1 W 20 28 11 15 1011.6 1010.8 0.0
23/04:30pm 24.6 21.2 12.6 47 7.0 WSW 22 35 12 19 1011.4 1010.5 0.0
23/04:00pm 24.1 21.2 12.8 49 6.6 WSW 20 32 11 17 1011.2 1010.3 0.0
23/03:30pm 23.3 20.1 13.0 52 6.0 WSW 22 33 12 18 1011.3 1010.4 0.0
23/03:00pm 23.2 20.2 12.7 51 6.1 WSW 20 33 11 18 1011.2 1010.3 0.0
23/02:30pm 23.5 18.9 10.9 45 7.1 WSW 26 39 14 21 1011.6 1010.8 0.0
23/02:00pm 24.6 18.7 9.1 37 8.5 WSW 30 43 16 23 1011.9 1011.1 0.0
23/01:30pm 24.9 20.0 8.6 35 8.9 W 24 33 13 18 1011.9 1011.1 0.0
23/01:00pm 23.8 19.2 11.1 44 7.2 W 26 35 14 19 1012.0 1011.2 0.0
23/12:30pm 23.3 20.0 12.8 51 6.1 W 22 30 12 16 1012.0 1011.2 0.0
23/12:00pm 22.9 19.5 12.5 52 6.0 W 22 32 12 17 1011.8 1011.0 0.0
23/11:30am 22.4 19.3 14.5 61 4.7 W 24 33 13 18 1012.1 1011.3 0.0
23/11:00am 22.0 19.3 15.6 67 3.9 W 24 32 13 17 1012.2 1011.4 0.0
23/10:30am 21.9 20.1 16.0 69 3.6 W 20 32 11 17 1012.2 1011.4 0.0
23/10:00am 21.8 20.3 16.8 73 3.1 W 20 32 11 17 1012.0 1011.2 0.0
23/09:30am 21.2 19.6 16.6 75 2.8 W 20 32 11 17 1011.5 1010.7 0.0
23/09:00am 20.3 19.9 17.2 82 1.9 W 15 20 8 11 1011.3 1010.4 0.0
23/08:30am 19.7 20.0 17.1 85 1.6 WNW 11 17 6 9 1011.2 1010.3 0.0
23/08:00am 18.4 18.5 15.4 83 1.8 W 9 11 5 6 1010.9 1010.0 0.0
23/07:30am 17.5 17.8 15.1 86 1.4 NW 7 9 4 5 1010.7 1009.8 0.0
23/07:00am 17.3 17.5 14.7 85 1.5 W 7 9 4 5 1010.3 1009.5 0.0
23/06:30am 17.6 17.4 14.7 83 1.7 W 9 9 5 5 1010.2 1009.4 0.0
23/06:00am 18.2 17.9 14.3 78 2.3 WSW 9 11 5 6 1010.0 1009.2 0.0
23/05:30am 18.8 20.1 14.0 73 2.8 CALM 0 0 0 0 1009.5 1008.7 0.0
23/05:00am 19.5 18.5 13.4 68 3.5 SW 11 13 6 7 1009.4 1008.6 0.0
23/04:30am 19.5 19.1 14.0 70 3.2 W 9 11 5 6 1009.2 1008.4 0.0
23/04:00am 19.2 19.8 15.9 81 2.0 SW 7 9 4 5 1009.2 1008.4 0.0
23/03:30am 19.0 19.1 15.5 80 2.1 SW 9 11 5 6 1009.7 1008.9 0.0
23/03:00am 18.8 20.6 15.6 82 1.9 CALM 0 0 0 0 1009.6 1008.8 0.0
23/02:30am 19.1 20.6 15.6 80 2.1 S 2 9 1 5 1009.6 1008.8 0.0
23/02:00am 19.2 21.1 15.7 80 2.1 CALM 0 0 0 0 1009.8 1009.0 0.0
23/01:30am 19.6 21.6 16.0 80 2.2 CALM 0 0 0 0 1009.7 1008.9 0.0
23/01:00am 20.0 21.6 15.9 77 2.5 NW 2 6 1 3 1009.8 1009.0 0.0
23/12:30am 20.0 22.0 15.9 77 2.5 CALM 0 0 0 0 1010.2 1009.4 0.0

Latest Capital City Observations: Canberra | Sydney | Melbourne | Brisbane | Adelaide | Perth | Hobart | Darwin

Other formats

Comma delimited format used in spreadsheet applications
http://www.bom.gov.au/fwo/IDS60901/IDS60901.94681.axf

JavaScript Object Notation format (JSON) in row-major order
http://www.bom.gov.au/fwo/IDS60901/IDS60901.94681.json

Data quality

Most of these data are generated automatically and are frequently updated. Quality checks on data are not normally performed. It is possible for incorrect values to appear. Refer to information at About Latest Weather Observations and please check the disclaimer before using these data.